Time;durP1;ratioP1;P1;durP2;ratioP2;P2;SDS_P1;SDS_P2;PMS_P1;PMS_P2;Temp;Humidity;BMP_temperature;BMP_pressure;BME280_temperature;BME280_humidity;BME280_pressure;Samples;Min_cycle;Max_cycle;Signal;HPM_P1;HPM_P2
2023/06/24 00:01:03;;;;;;;;;;;12.20;99.90;;;;;;4970523;28;20053;-69
2023/06/24 00:03:31;;;;;;;;;;;12.20;99.90;;;;;;4974754;28;20007;-69
2023/06/24 00:06:03;;;;;;;;;;;12.10;99.90;;;;;;4969050;28;20037;-69
2023/06/24 00:08:34;;;;;;;;;;;12.10;99.90;;;;;;4976421;28;20010;-68
2023/06/24 00:11:02;;;;;;;;;;;12.10;99.90;;;;;;4947135;28;20021;-70
2023/06/24 00:13:28;;;;;;;;;;;12.00;99.90;;;;;;4974635;28;20003;-69
2023/06/24 00:15:55;;;;;;;;;;;12.00;99.90;;;;;;4973957;28;20022;-69
2023/06/24 00:18:24;;;;;;;;;;;11.90;99.90;;;;;;4971167;28;20066;-68
2023/06/24 00:20:51;;;;;;;;;;;11.90;99.90;;;;;;4972158;28;20729;-70
2023/06/24 00:23:24;;;;;;;;;;;11.80;99.90;;;;;;4946385;28;21063;-71
2023/06/24 00:25:54;;;;;;;;;;;11.70;99.90;;;;;;4974688;28;20194;-70
2023/06/24 00:28:21;;;;;;;;;;;11.70;99.90;;;;;;4969001;28;20015;-70
2023/06/24 00:30:48;;;;;;;;;;;11.60;99.90;;;;;;4957810;28;20014;-69
2023/06/24 00:33:16;;;;;;;;;;;11.60;99.90;;;;;;4971159;28;20002;-70
2023/06/24 00:35:43;;;;;;;;;;;11.60;99.90;;;;;;4974039;28;20023;-70
2023/06/24 00:38:09;;;;;;;;;;;11.70;99.90;;;;;;4952916;28;20105;-70
2023/06/24 00:40:37;;;;;;;;;;;11.70;99.90;;;;;;4973215;28;20074;-70
2023/06/24 00:43:04;;;;;;;;;;;11.70;99.90;;;;;;4971282;28;20007;-70
2023/06/24 00:45:33;;;;;;;;;;;11.60;99.90;;;;;;4958355;28;20051;-69
2023/06/24 00:48:01;;;;;;;;;;;11.60;99.90;;;;;;4971503;28;20011;-69
2023/06/24 00:50:27;;;;;;;;;;;11.50;99.90;;;;;;4952846;28;20011;-70
2023/06/24 00:52:54;;;;;;;;;;;11.60;99.90;;;;;;4976281;28;20013;-70
2023/06/24 00:55:21;;;;;;;;;;;11.70;99.90;;;;;;4974453;28;20093;-69
2023/06/24 00:57:52;;;;;;;;;;;11.70;99.90;;;;;;4984322;28;20019;-69
2023/06/24 01:00:21;;;;;;;;;;;11.60;99.90;;;;;;4976439;28;20069;-70
2023/06/24 01:02:49;;;;;;;;;;;11.50;99.90;;;;;;4991303;28;20010;-69
2023/06/24 01:05:23;;;;;;;;;;;11.50;99.90;;;;;;4991821;28;20074;-69
2023/06/24 01:07:54;;;;;;;;;;;11.60;99.90;;;;;;4979596;28;20042;-70
2023/06/24 01:10:23;;;;;;;;;;;11.50;99.90;;;;;;4950201;28;20746;-68
2023/06/24 01:12:49;;;;;;;;;;;11.50;99.90;;;;;;4979421;28;20048;-68
2023/06/24 01:15:18;;;;;;;;;;;11.30;99.90;;;;;;4975143;28;20520;-70
2023/06/24 01:17:54;;;;;;;;;;;11.20;99.90;;;;;;4973653;28;20097;-71
2023/06/24 01:20:21;;;;;;;;;;;11.10;99.90;;;;;;4967570;28;20104;-69
2023/06/24 01:22:54;;;;;;;;;;;11.10;99.90;;;;;;4975002;28;20523;-69
2023/06/24 01:25:43;;;;;;;;;;;11.10;99.90;;;;;;4968345;28;20448;-70
2023/06/24 01:28:23;;;;;;;;;;;11.10;99.90;;;;;;4968747;28;20065;-69
2023/06/24 01:30:50;;;;;;;;;;;11.00;99.90;;;;;;4975392;28;20046;-69
2023/06/24 01:33:22;;;;;;;;;;;10.90;99.90;;;;;;4969764;28;20010;-69
2023/06/24 01:35:49;;;;;;;;;;;10.90;99.90;;;;;;4972736;28;20050;-68
2023/06/24 01:38:24;;;;;;;;;;;10.90;99.90;;;;;;4974865;28;20076;-69
2023/06/24 01:40:51;;;;;;;;;;;10.90;99.90;;;;;;4977587;28;20488;-71
2023/06/24 01:43:21;;;;;;;;;;;10.90;99.90;;;;;;4975914;28;20003;-70
2023/06/24 01:45:52;;;;;;;;;;;10.90;99.90;;;;;;4961168;28;20062;-71
2023/06/24 01:48:22;;;;;;;;;;;10.90;99.90;;;;;;4971896;28;20003;-71
2023/06/24 01:50:59;;;;;;;;;;;10.90;99.90;;;;;;4977830;28;20030;-71
2023/06/24 01:53:32;;;;;;;;;;;10.90;99.90;;;;;;4975199;28;20132;-70
2023/06/24 01:56:00;;;;;;;;;;;11.00;99.90;;;;;;4975483;28;20026;-71
2023/06/24 01:58:27;;;;;;;;;;;11.10;99.90;;;;;;4952406;28;20018;-71
2023/06/24 02:00:55;;;;;;;;;;;11.10;99.90;;;;;;4960319;28;20053;-71
2023/06/24 02:03:22;;;;;;;;;;;11.10;99.90;;;;;;4952759;28;20011;-71
2023/06/24 02:05:50;;;;;;;;;;;11.00;99.90;;;;;;4936325;28;20054;-71
2023/06/24 02:08:21;;;;;;;;;;;11.00;99.90;;;;;;4954106;28;20109;-71
2023/06/24 02:10:48;;;;;;;;;;;11.00;99.90;;;;;;4937998;28;20019;-72
2023/06/24 02:13:16;;;;;;;;;;;10.90;99.90;;;;;;4955551;28;20003;-69
2023/06/24 02:15:43;;;;;;;;;;;10.80;99.90;;;;;;4938797;28;20085;-69
2023/06/24 02:18:10;;;;;;;;;;;10.90;99.90;;;;;;4953200;28;20023;-69
2023/06/24 02:20:38;;;;;;;;;;;10.90;99.90;;;;;;4954352;28;20113;-71
2023/06/24 02:23:07;;;;;;;;;;;10.80;99.90;;;;;;4954945;28;20007;-71
2023/06/24 02:25:38;;;;;;;;;;;10.90;99.90;;;;;;4941726;28;20097;-72
2023/06/24 02:28:06;;;;;;;;;;;10.90;99.90;;;;;;4953774;28;20393;-70
2023/06/24 02:30:37;;;;;;;;;;;10.70;99.90;;;;;;4953724;28;20536;-71
2023/06/24 02:33:04;;;;;;;;;;;10.60;99.90;;;;;;4953604;28;20906;-69
2023/06/24 02:35:31;;;;;;;;;;;10.60;99.90;;;;;;4958350;28;20027;-70
2023/06/24 02:37:58;;;;;;;;;;;10.60;99.90;;;;;;4955808;28;20023;-71
2023/06/24 02:40:25;;;;;;;;;;;10.50;99.90;;;;;;4954732;28;23083;-71
2023/06/24 02:42:52;;;;;;;;;;;10.50;99.90;;;;;;4953102;28;20010;-70
2023/06/24 02:45:19;;;;;;;;;;;10.50;99.90;;;;;;4933654;28;20095;-70
2023/06/24 02:47:46;;;;;;;;;;;10.50;99.90;;;;;;4949629;28;20013;-71
2023/06/24 02:50:14;;;;;;;;;;;10.50;99.90;;;;;;4951583;28;20003;-71
2023/06/24 02:52:41;;;;;;;;;;;10.40;99.90;;;;;;4959068;28;20011;-70
2023/06/24 02:55:10;;;;;;;;;;;10.40;99.90;;;;;;4950264;28;20059;-70
2023/06/24 02:57:46;;;;;;;;;;;10.40;99.90;;;;;;4937449;28;20093;-71
2023/06/24 03:00:33;;;;;;;;;;;10.40;99.90;;;;;;4956399;28;20089;-70
2023/06/24 03:03:21;;;;;;;;;;;10.40;99.90;;;;;;4949074;28;20097;-71
2023/06/24 03:05:53;;;;;;;;;;;10.40;99.90;;;;;;4957198;28;20027;-70
2023/06/24 03:08:21;;;;;;;;;;;10.60;99.90;;;;;;4932764;28;20009;-70
2023/06/24 03:10:50;;;;;;;;;;;10.60;99.90;;;;;;4954243;28;20037;-70
2023/06/24 03:13:20;;;;;;;;;;;10.60;99.90;;;;;;4935163;28;20566;-70
2023/06/24 03:15:53;;;;;;;;;;;10.60;99.90;;;;;;4955716;28;20600;-70
2023/06/24 03:18:20;;;;;;;;;;;10.60;99.90;;;;;;4932944;28;20170;-70
2023/06/24 03:20:47;;;;;;;;;;;10.60;99.90;;;;;;4954686;28;20019;-71
2023/06/24 03:23:18;;;;;;;;;;;10.50;99.90;;;;;;4949888;28;20011;-70
2023/06/24 03:25:44;;;;;;;;;;;10.50;99.90;;;;;;4935781;28;20025;-71
2023/06/24 03:28:11;;;;;;;;;;;10.50;99.90;;;;;;4950191;28;20011;-71
2023/06/24 03:30:44;;;;;;;;;;;10.40;99.90;;;;;;4933703;28;20030;-70
2023/06/24 03:33:16;;;;;;;;;;;10.40;99.90;;;;;;4929741;28;20007;-70
2023/06/24 03:35:44;;;;;;;;;;;10.50;99.90;;;;;;4939459;28;20362;-71
2023/06/24 03:38:14;;;;;;;;;;;10.50;99.90;;;;;;4951040;28;20105;-71
2023/06/24 03:40:41;;;;;;;;;;;10.40;99.90;;;;;;4935076;28;20019;-71
2023/06/24 03:43:11;;;;;;;;;;;10.40;99.90;;;;;;4948043;28;20011;-69
2023/06/24 03:45:38;;;;;;;;;;;10.50;99.90;;;;;;4935560;28;20045;-71
2023/06/24 03:48:05;;;;;;;;;;;10.60;99.90;;;;;;4942800;28;20007;-70
2023/06/24 03:50:31;;;;;;;;;;;10.80;99.90;;;;;;4927795;28;20674;-70
2023/06/24 03:52:59;;;;;;;;;;;10.80;99.90;;;;;;4956145;28;20018;-68
2023/06/24 03:55:26;;;;;;;;;;;10.80;99.90;;;;;;4953882;28;20114;-70
2023/06/24 03:57:53;;;;;;;;;;;10.70;99.90;;;;;;4954980;28;20086;-69
2023/06/24 04:00:20;;;;;;;;;;;10.70;99.90;;;;;;4930628;28;20397;-70
2023/06/24 04:02:47;;;;;;;;;;;10.70;99.90;;;;;;4950309;28;20007;-69
2023/06/24 04:05:14;;;;;;;;;;;10.70;99.90;;;;;;4945091;28;20023;-70
2023/06/24 04:07:46;;;;;;;;;;;10.70;99.90;;;;;;4936379;28;20477;-69
2023/06/24 04:10:13;;;;;;;;;;;10.60;99.90;;;;;;4947310;28;20030;-71
2023/06/24 04:12:44;;;;;;;;;;;10.60;99.90;;;;;;4932778;28;20010;-69
2023/06/24 04:15:10;;;;;;;;;;;10.70;99.90;;;;;;4952226;28;20497;-68
2023/06/24 04:17:37;;;;;;;;;;;10.70;99.90;;;;;;4935385;28;20026;-69
2023/06/24 04:20:08;;;;;;;;;;;10.80;99.90;;;;;;4935173;28;20014;-70
2023/06/24 04:22:39;;;;;;;;;;;10.80;99.90;;;;;;4952204;28;20022;-71
2023/06/24 04:25:06;;;;;;;;;;;10.90;99.90;;;;;;4950836;28;20113;-71
2023/06/24 04:27:34;;;;;;;;;;;10.90;99.90;;;;;;4949917;28;20030;-72
2023/06/24 04:30:02;;;;;;;;;;;10.90;99.90;;;;;;4934371;28;20004;-71
2023/06/24 04:32:30;;;;;;;;;;;11.20;99.90;;;;;;4945849;28;20456;-69
2023/06/24 04:34:58;;;;;;;;;;;11.60;99.90;;;;;;4956927;28;20019;-69
2023/06/24 04:37:25;;;;;;;;;;;11.90;99.90;;;;;;4931607;28;20110;-69
2023/06/24 04:39:52;;;;;;;;;;;12.10;99.90;;;;;;4921915;28;20003;-71
2023/06/24 04:42:19;;;;;;;;;;;12.40;99.90;;;;;;4948377;28;20027;-69
2023/06/24 04:44:45;;;;;;;;;;;12.80;99.90;;;;;;4953470;28;20074;-70
2023/06/24 04:47:13;;;;;;;;;;;13.10;99.90;;;;;;4949518;28;21183;-70
2023/06/24 04:49:40;;;;;;;;;;;13.40;99.90;;;;;;4952009;28;20034;-69
2023/06/24 04:52:07;;;;;;;;;;;13.80;99.90;;;;;;4952872;28;20109;-69
2023/06/24 04:54:33;;;;;;;;;;;14.30;99.90;;;;;;4949653;28;20118;-69
2023/06/24 04:57:00;;;;;;;;;;;14.80;99.90;;;;;;4949055;28;20095;-69
2023/06/24 04:59:27;;;;;;;;;;;15.20;99.90;;;;;;4952602;28;20070;-70
2023/06/24 05:01:53;;;;;;;;;;;15.40;99.90;;;;;;4951757;28;20019;-70
2023/06/24 05:04:20;;;;;;;;;;;15.70;99.90;;;;;;4928106;28;20128;-69
2023/06/24 05:06:47;;;;;;;;;;;15.90;99.90;;;;;;4955075;28;20047;-68
2023/06/24 05:09:14;;;;;;;;;;;16.10;99.90;;;;;;4952387;28;20537;-68
2023/06/24 05:11:41;;;;;;;;;;;16.10;99.90;;;;;;4931978;28;20014;-69
2023/06/24 05:14:08;;;;;;;;;;;16.20;99.90;;;;;;4954454;28;20007;-69
2023/06/24 05:16:35;;;;;;;;;;;16.40;99.90;;;;;;4938389;28;20088;-68
2023/06/24 05:19:01;;;;;;;;;;;16.70;99.90;;;;;;4948192;28;20046;-69
2023/06/24 05:21:28;;;;;;;;;;;16.90;99.90;;;;;;4944872;28;20063;-69
2023/06/24 05:23:55;;;;;;;;;;;17.00;99.90;;;;;;4925049;28;20003;-69
2023/06/24 05:26:22;;;;;;;;;;;17.20;99.90;;;;;;4968020;28;20019;-68
2023/06/24 05:28:48;;;;;;;;;;;17.50;99.90;;;;;;4975608;28;20003;-68
2023/06/24 05:31:15;;;;;;;;;;;17.70;99.90;;;;;;4961872;28;20023;-69
2023/06/24 05:33:41;;;;;;;;;;;17.60;99.90;;;;;;4938216;28;20070;-69
2023/06/24 05:36:08;;;;;;;;;;;17.60;99.90;;;;;;4953331;28;20026;-68
2023/06/24 05:38:35;;;;;;;;;;;17.70;99.90;;;;;;4949231;28;21526;-70
2023/06/24 05:41:02;;;;;;;;;;;18.00;99.90;;;;;;4945596;28;20070;-68
2023/06/24 05:43:29;;;;;;;;;;;18.30;99.90;;;;;;4951241;28;20699;-70
2023/06/24 05:45:56;;;;;;;;;;;18.60;99.90;;;;;;4951773;28;20059;-69
2023/06/24 05:48:22;;;;;;;;;;;18.90;99.90;;;;;;4930546;28;20010;-69
2023/06/24 05:50:49;;;;;;;;;;;19.10;99.90;;;;;;4950685;28;20062;-68
2023/06/24 05:53:15;;;;;;;;;;;19.10;99.90;;;;;;4939629;28;20003;-71
2023/06/24 05:55:42;;;;;;;;;;;19.40;99.90;;;;;;4951444;28;20066;-71
2023/06/24 05:58:09;;;;;;;;;;;19.70;99.90;;;;;;4937377;28;20069;-71
2023/06/24 06:00:36;;;;;;;;;;;20.00;99.90;;;;;;4951021;28;20043;-71
2023/06/24 06:03:03;;;;;;;;;;;20.20;99.90;;;;;;4953662;28;20010;-69
2023/06/24 06:05:29;;;;;;;;;;;20.50;99.90;;;;;;4948512;28;20043;-69
2023/06/24 06:07:56;;;;;;;;;;;20.70;99.90;;;;;;4951908;28;20011;-69
2023/06/24 06:10:22;;;;;;;;;;;20.90;99.90;;;;;;4948823;28;20042;-70
2023/06/24 06:12:49;;;;;;;;;;;21.40;99.90;;;;;;4955136;28;20575;-70
2023/06/24 06:15:16;;;;;;;;;;;21.50;99.90;;;;;;4950415;28;20058;-70
2023/06/24 06:17:42;;;;;;;;;;;21.60;99.90;;;;;;4952422;28;20038;-69
2023/06/24 06:20:09;;;;;;;;;;;21.80;99.90;;;;;;4952447;28;20022;-69
2023/06/24 06:22:37;;;;;;;;;;;21.90;99.90;;;;;;4947781;28;20019;-70
2023/06/24 06:25:05;;;;;;;;;;;22.20;99.90;;;;;;4955557;28;20073;-70
2023/06/24 06:27:31;;;;;;;;;;;22.50;99.90;;;;;;4936740;28;20018;-71
2023/06/24 06:29:58;;;;;;;;;;;22.70;99.90;;;;;;4954761;28;20529;-69
2023/06/24 06:32:25;;;;;;;;;;;22.60;99.90;;;;;;4951594;28;20724;-70
2023/06/24 06:34:51;;;;;;;;;;;23.00;99.90;;;;;;4953879;28;20114;-70
2023/06/24 06:37:18;;;;;;;;;;;23.30;99.90;;;;;;4951592;28;20015;-69
2023/06/24 06:39:45;;;;;;;;;;;23.10;99.90;;;;;;4949994;28;20015;-70
2023/06/24 06:42:12;;;;;;;;;;;23.30;99.90;;;;;;4951407;28;20022;-70
2023/06/24 06:44:38;;;;;;;;;;;23.70;99.90;;;;;;4952288;28;20031;-70
2023/06/24 06:47:05;;;;;;;;;;;23.80;99.90;;;;;;4955892;28;20042;-70
2023/06/24 06:49:32;;;;;;;;;;;23.70;99.90;;;;;;4950875;28;20002;-71
2023/06/24 06:51:58;;;;;;;;;;;23.90;99.90;;;;;;4956344;28;20014;-69
2023/06/24 06:54:26;;;;;;;;;;;24.00;99.90;;;;;;4951980;28;20035;-70
2023/06/24 06:56:52;;;;;;;;;;;24.20;99.90;;;;;;4938627;28;20014;-71
2023/06/24 06:59:19;;;;;;;;;;;24.30;99.90;;;;;;4949486;28;20018;-70
2023/06/24 07:01:46;;;;;;;;;;;24.30;99.90;;;;;;4948982;28;20021;-70
2023/06/24 07:04:13;;;;;;;;;;;24.70;99.90;;;;;;4951835;28;20102;-71
2023/06/24 07:06:39;;;;;;;;;;;25.00;99.90;;;;;;4952005;28;20046;-70
2023/06/24 07:09:07;;;;;;;;;;;24.90;99.90;;;;;;4957245;28;20003;-71
2023/06/24 07:11:34;;;;;;;;;;;24.70;99.90;;;;;;4951268;28;20030;-70
2023/06/24 07:14:00;;;;;;;;;;;24.50;99.90;;;;;;4956902;28;20528;-70
2023/06/24 07:16:27;;;;;;;;;;;24.40;99.90;;;;;;4952913;28;20019;-70
2023/06/24 07:18:53;;;;;;;;;;;24.40;99.90;;;;;;4954269;28;20102;-71
2023/06/24 07:21:21;;;;;;;;;;;24.60;99.90;;;;;;4949653;28;20070;-74
2023/06/24 07:23:47;;;;;;;;;;;24.80;99.90;;;;;;4949796;28;20014;-74
2023/06/24 07:26:14;;;;;;;;;;;24.60;99.90;;;;;;4938423;28;20042;-74
2023/06/24 07:28:41;;;;;;;;;;;24.90;99.90;;;;;;4948122;28;20006;-74
2023/06/24 07:31:07;;;;;;;;;;;24.70;99.90;;;;;;4954212;28;20022;-73
2023/06/24 07:33:34;;;;;;;;;;;24.50;99.90;;;;;;4950813;28;20050;-75
2023/06/24 07:36:01;;;;;;;;;;;24.70;99.90;;;;;;4952530;28;20066;-73
2023/06/24 07:38:28;;;;;;;;;;;24.50;99.90;;;;;;4953264;28;20069;-78
2023/06/24 07:40:55;;;;;;;;;;;24.60;99.90;;;;;;4957693;28;20659;-80
2023/06/24 07:43:21;;;;;;;;;;;24.90;99.90;;;;;;4949676;28;20043;-78
2023/06/24 07:45:48;;;;;;;;;;;25.20;99.90;;;;;;4952819;28;20461;-78
2023/06/24 07:48:15;;;;;;;;;;;25.40;99.90;;;;;;4937809;28;20017;-78
2023/06/24 07:50:41;;;;;;;;;;;25.20;99.90;;;;;;4951739;28;20023;-77
2023/06/24 07:53:08;;;;;;;;;;;25.30;99.90;;;;;;4942328;28;20913;-77
2023/06/24 07:55:35;;;;;;;;;;;25.50;99.90;;;;;;4947730;28;20023;-77
2023/06/24 07:58:02;;;;;;;;;;;24.80;99.90;;;;;;4954400;28;20452;-77
2023/06/24 08:00:29;;;;;;;;;;;25.00;99.90;;;;;;4952450;28;22780;-77
2023/06/24 08:02:57;;;;;;;;;;;25.60;99.90;;;;;;4955138;28;20058;-78
2023/06/24 08:05:24;;;;;;;;;;;25.80;99.90;;;;;;4957080;28;20025;-77
2023/06/24 08:07:51;;;;;;;;;;;26.20;99.90;;;;;;4957522;28;20481;-78
2023/06/24 08:10:18;;;;;;;;;;;26.30;99.90;;;;;;4960054;28;20003;-77
2023/06/24 08:12:44;;;;;;;;;;;26.30;99.90;;;;;;4932338;28;20065;-78
2023/06/24 08:15:11;;;;;;;;;;;26.20;99.90;;;;;;4955251;28;20126;-77
2023/06/24 08:17:38;;;;;;;;;;;25.80;99.90;;;;;;4955753;28;20031;-77
2023/06/24 08:20:05;;;;;;;;;;;26.00;99.90;;;;;;4953867;28;20059;-78
2023/06/24 08:22:32;;;;;;;;;;;25.80;99.90;;;;;;4952435;28;20046;-77
2023/06/24 08:24:59;;;;;;;;;;;25.80;99.90;;;;;;4938682;28;20676;-77
2023/06/24 08:27:25;;;;;;;;;;;25.90;99.90;;;;;;4953673;28;20015;-78
2023/06/24 08:29:52;;;;;;;;;;;25.70;99.90;;;;;;4954997;28;20014;-78
2023/06/24 08:32:19;;;;;;;;;;;25.50;99.90;;;;;;4945384;28;20659;-77
2023/06/24 08:34:46;;;;;;;;;;;25.70;99.90;;;;;;4953186;28;20445;-78
2023/06/24 08:37:13;;;;;;;;;;;25.80;99.90;;;;;;4953347;28;20070;-76
2023/06/24 08:39:40;;;;;;;;;;;25.90;99.90;;;;;;4935868;28;20019;-77
2023/06/24 08:42:07;;;;;;;;;;;25.60;99.90;;;;;;4949838;28;20047;-80
2023/06/24 08:44:33;;;;;;;;;;;25.60;99.90;;;;;;4948492;28;20130;-76
2023/06/24 08:47:00;;;;;;;;;;;25.40;99.90;;;;;;4931885;28;20567;-78
2023/06/24 08:49:28;;;;;;;;;;;25.40;99.90;;;;;;4951772;28;20713;-78
2023/06/24 08:52:01;;;;;;;;;;;25.60;99.90;;;;;;4955392;28;20568;-78
2023/06/24 08:54:28;;;;;;;;;;;25.80;99.90;;;;;;4953151;28;20082;-77
2023/06/24 08:56:55;;;;;;;;;;;25.80;99.90;;;;;;4954107;28;20027;-78
2023/06/24 08:59:22;;;;;;;;;;;26.20;99.90;;;;;;4944801;28;20061;-77
2023/06/24 09:01:52;;;;;;;;;;;26.10;99.90;;;;;;4945096;28;20142;-76
2023/06/24 09:04:18;;;;;;;;;;;26.10;99.90;;;;;;4955602;28;20023;-77
2023/06/24 09:06:46;;;;;;;;;;;26.10;99.90;;;;;;4944764;28;20054;-75
2023/06/24 09:09:19;;;;;;;;;;;25.90;99.90;;;;;;4953364;28;20113;-75
2023/06/24 09:11:53;;;;;;;;;;;25.90;99.90;;;;;;4952357;28;20378;-75
2023/06/24 09:14:20;;;;;;;;;;;26.00;99.90;;;;;;4955033;28;20023;-76
2023/06/24 09:16:53;;;;;;;;;;;25.90;99.90;;;;;;4951696;28;20652;-76
2023/06/24 09:19:21;;;;;;;;;;;26.10;99.90;;;;;;4928540;28;20026;-76
2023/06/24 09:21:48;;;;;;;;;;;26.00;99.90;;;;;;4949547;28;20571;-76
2023/06/24 09:24:14;;;;;;;;;;;25.60;99.90;;;;;;4939767;28;20114;-76
2023/06/24 09:26:42;;;;;;;;;;;25.70;99.90;;;;;;4948320;28;20057;-76
2023/06/24 09:29:09;;;;;;;;;;;26.10;99.90;;;;;;4949547;28;20003;-75
2023/06/24 09:31:35;;;;;;;;;;;26.30;99.90;;;;;;4950167;28;20094;-76
2023/06/24 09:34:02;;;;;;;;;;;26.60;99.90;;;;;;4954210;28;20010;-75
2023/06/24 09:36:29;;;;;;;;;;;26.60;99.90;;;;;;4935519;28;20078;-76
2023/06/24 09:39:02;;;;;;;;;;;26.80;99.90;;;;;;4950316;28;20106;-75
2023/06/24 09:41:29;;;;;;;;;;;27.30;99.90;;;;;;4965764;28;20058;-77
2023/06/24 09:43:57;;;;;;;;;;;27.50;99.90;;;;;;4977089;28;19991;-74
2023/06/24 09:46:24;;;;;;;;;;;27.50;99.90;;;;;;4979756;28;20018;-75
2023/06/24 09:48:51;;;;;;;;;;;27.60;99.90;;;;;;4952350;28;21368;-75
2023/06/24 09:51:18;;;;;;;;;;;27.70;99.90;;;;;;4952112;28;20051;-76
2023/06/24 09:53:45;;;;;;;;;;;27.40;99.90;;;;;;4950639;28;20057;-75
2023/06/24 09:56:13;;;;;;;;;;;27.40;99.90;;;;;;4951970;28;20110;-75
2023/06/24 09:58:41;;;;;;;;;;;27.50;99.90;;;;;;4953333;28;20646;-76
2023/06/24 10:01:08;;;;;;;;;;;27.40;99.90;;;;;;4956862;28;20440;-76
2023/06/24 10:03:36;;;;;;;;;;;26.90;99.90;;;;;;4954273;28;20679;-76
2023/06/24 10:06:04;;;;;;;;;;;26.60;99.90;;;;;;4951689;28;20019;-75
2023/06/24 10:08:31;;;;;;;;;;;26.70;99.90;;;;;;4954871;28;20004;-76
2023/06/24 10:10:58;;;;;;;;;;;26.10;99.90;;;;;;4957331;28;20077;-77
2023/06/24 10:13:26;;;;;;;;;;;26.50;99.90;;;;;;4956159;28;20066;-76
2023/06/24 10:15:54;;;;;;;;;;;26.80;99.90;;;;;;4938201;28;20730;-76
2023/06/24 10:18:36;;;;;;;;;;;27.20;99.90;;;;;;4959817;28;20034;-76
2023/06/24 10:21:04;;;;;;;;;;;27.10;99.90;;;;;;4935328;28;20555;-76
2023/06/24 10:23:40;;;;;;;;;;;27.30;99.90;;;;;;4952356;28;20555;-79
2023/06/24 10:26:08;;;;;;;;;;;27.50;99.90;;;;;;4937618;28;20019;-74
2023/06/24 10:28:53;;;;;;;;;;;27.40;99.90;;;;;;4955919;28;20103;-74
2023/06/24 10:31:40;;;;;;;;;;;27.20;99.90;;;;;;4937624;28;20046;-73
2023/06/24 10:34:19;;;;;;;;;;;26.90;99.90;;;;;;4956917;28;20094;-75
2023/06/24 10:36:59;;;;;;;;;;;26.90;99.90;;;;;;4955573;28;20023;-73
2023/06/24 10:39:38;;;;;;;;;;;27.30;99.90;;;;;;4938851;28;20645;-73
2023/06/24 10:42:24;;;;;;;;;;;27.30;99.90;;;;;;4954471;28;20078;-75
2023/06/24 10:44:51;;;;;;;;;;;27.30;99.90;;;;;;4954813;28;20027;-74
2023/06/24 10:47:18;;;;;;;;;;;27.20;99.90;;;;;;4934443;28;20080;-74
2023/06/24 10:49:45;;;;;;;;;;;27.10;99.90;;;;;;4954824;28;20062;-73
2023/06/24 10:52:12;;;;;;;;;;;26.80;99.90;;;;;;4956874;28;20019;-72
2023/06/24 10:54:39;;;;;;;;;;;26.70;99.90;;;;;;4942666;28;20030;-73
2023/06/24 10:57:07;;;;;;;;;;;27.00;99.90;;;;;;4956054;28;20583;-74
2023/06/24 10:59:34;;;;;;;;;;;27.00;99.90;;;;;;4952392;28;20031;-73
2023/06/24 11:02:01;;;;;;;;;;;27.30;99.90;;;;;;4955284;28;20046;-73
2023/06/24 11:04:28;;;;;;;;;;;27.40;99.90;;;;;;4941923;28;20036;-72
2023/06/24 11:07:02;;;;;;;;;;;27.60;99.90;;;;;;4955381;28;20023;-72
2023/06/24 11:09:28;;;;;;;;;;;27.40;99.90;;;;;;4952248;28;20006;-73
2023/06/24 11:11:55;;;;;;;;;;;27.50;99.90;;;;;;4952622;28;20019;-72
2023/06/24 11:14:22;;;;;;;;;;;27.70;99.90;;;;;;4961929;28;20366;-73
2023/06/24 11:16:49;;;;;;;;;;;27.70;99.90;;;;;;4951704;28;20078;-73
2023/06/24 11:19:16;;;;;;;;;;;28.00;99.90;;;;;;4955926;28;20007;-73
2023/06/24 11:21:43;;;;;;;;;;;28.10;99.90;;;;;;4953838;28;20508;-73
2023/06/24 11:24:11;;;;;;;;;;;28.00;99.90;;;;;;4957470;28;20058;-73
2023/06/24 11:26:38;;;;;;;;;;;27.40;99.90;;;;;;4951225;28;20581;-72
2023/06/24 11:29:11;;;;;;;;;;;26.80;99.90;;;;;;4957440;28;20073;-74
2023/06/24 11:31:38;;;;;;;;;;;26.90;99.90;;;;;;4948314;28;20475;-74
2023/06/24 11:34:05;;;;;;;;;;;27.20;99.90;;;;;;4936103;28;20007;-74
2023/06/24 11:36:32;;;;;;;;;;;27.20;99.90;;;;;;4951529;28;20020;-73
2023/06/24 11:38:59;;;;;;;;;;;27.20;99.90;;;;;;4934995;28;20097;-73
2023/06/24 11:41:27;;;;;;;;;;;27.40;99.90;;;;;;4953278;28;20054;-73
2023/06/24 11:43:54;;;;;;;;;;;27.60;99.90;;;;;;4954576;28;20095;-72
2023/06/24 11:46:24;;;;;;;;;;;27.80;99.90;;;;;;4952460;28;20066;-74
2023/06/24 11:48:51;;;;;;;;;;;27.70;99.90;;;;;;4955357;28;20058;-74
2023/06/24 11:51:19;;;;;;;;;;;27.60;99.90;;;;;;4953560;28;21146;-73
2023/06/24 11:53:46;;;;;;;;;;;27.60;99.90;;;;;;4949311;28;20810;-74
2023/06/24 11:56:12;;;;;;;;;;;27.80;99.90;;;;;;4955325;28;20481;-74
2023/06/24 11:58:39;;;;;;;;;;;28.10;99.90;;;;;;4950361;28;20007;-73
2023/06/24 12:01:06;;;;;;;;;;;27.90;99.90;;;;;;4952296;28;20023;-73
2023/06/24 12:03:33;;;;;;;;;;;27.80;99.90;;;;;;4955651;28;20003;-74
2023/06/24 12:06:00;;;;;;;;;;;28.00;99.90;;;;;;4951580;28;20572;-73
2023/06/24 12:08:27;;;;;;;;;;;28.00;99.90;;;;;;4959790;28;20465;-74
2023/06/24 12:11:09;;;;;;;;;;;27.70;99.90;;;;;;4953301;28;20684;-74
2023/06/24 12:13:35;;;;;;;;;;;27.80;99.90;;;;;;4956214;28;20748;-74
2023/06/24 12:16:02;;;;;;;;;;;27.60;99.90;;;;;;4952383;28;20073;-71
2023/06/24 12:18:28;;;;;;;;;;;27.60;99.90;;;;;;4954029;28;20026;-72
2023/06/24 12:20:55;;;;;;;;;;;27.90;99.90;;;;;;4935454;28;20043;-73
2023/06/24 12:23:22;;;;;;;;;;;28.10;99.90;;;;;;4915953;28;20505;-74
2023/06/24 12:25:49;;;;;;;;;;;28.10;99.90;;;;;;4947596;28;20054;-74
2023/06/24 12:28:15;;;;;;;;;;;28.00;99.90;;;;;;4934898;28;20409;-74
2023/06/24 12:30:43;;;;;;;;;;;28.00;99.90;;;;;;4953768;28;20019;-74
2023/06/24 12:33:09;;;;;;;;;;;27.90;99.90;;;;;;4953318;28;20011;-73
2023/06/24 12:35:36;;;;;;;;;;;27.90;99.90;;;;;;4952556;28;20034;-73
2023/06/24 12:38:02;;;;;;;;;;;28.10;99.90;;;;;;4957002;28;20038;-73
2023/06/24 12:40:29;;;;;;;;;;;28.20;99.90;;;;;;4952648;28;21517;-73
2023/06/24 12:42:57;;;;;;;;;;;28.30;99.90;;;;;;4947154;28;20007;-73
2023/06/24 12:45:24;;;;;;;;;;;28.00;99.90;;;;;;4927636;28;20615;-73
2023/06/24 12:47:51;;;;;;;;;;;27.70;99.90;;;;;;4947449;28;20007;-73
2023/06/24 12:50:18;;;;;;;;;;;27.90;99.90;;;;;;4952382;28;20003;-73
2023/06/24 12:52:45;;;;;;;;;;;28.00;99.90;;;;;;4953414;28;20006;-74
2023/06/24 12:55:11;;;;;;;;;;;28.10;99.90;;;;;;4975101;28;20019;-74
2023/06/24 12:57:40;;;;;;;;;;;28.10;99.90;;;;;;4951711;28;20397;-71
2023/06/24 13:00:08;;;;;;;;;;;28.40;99.90;;;;;;4952813;28;20023;-74
2023/06/24 13:02:35;;;;;;;;;;;28.40;99.90;;;;;;4950882;28;20023;-72
2023/06/24 13:05:03;;;;;;;;;;;28.40;99.90;;;;;;4950969;28;20070;-74
2023/06/24 13:07:30;;;;;;;;;;;28.60;99.90;;;;;;4932800;28;20026;-75
2023/06/24 13:09:59;;;;;;;;;;;28.70;99.90;;;;;;4951288;28;20011;-75
2023/06/24 13:12:25;;;;;;;;;;;28.50;99.90;;;;;;4954819;28;20015;-73
2023/06/24 13:14:52;;;;;;;;;;;28.50;99.90;;;;;;4950664;28;20023;-73
2023/06/24 13:17:19;;;;;;;;;;;28.20;99.90;;;;;;4951592;28;20019;-73
2023/06/24 13:19:45;;;;;;;;;;;28.40;99.90;;;;;;4930904;28;20011;-74
2023/06/24 13:22:12;;;;;;;;;;;28.40;99.90;;;;;;4954639;28;20019;-73
2023/06/24 13:24:39;;;;;;;;;;;28.50;99.90;;;;;;4955306;28;20113;-73
2023/06/24 13:27:05;;;;;;;;;;;28.80;99.90;;;;;;4952207;28;20021;-73
2023/06/24 13:29:32;;;;;;;;;;;28.80;99.90;;;;;;4937796;28;20010;-73
2023/06/24 13:31:59;;;;;;;;;;;28.90;99.90;;;;;;4956004;28;20074;-73
2023/06/24 13:34:25;;;;;;;;;;;28.70;99.90;;;;;;4954151;28;20208;-74
2023/06/24 13:36:52;;;;;;;;;;;28.50;99.90;;;;;;4956335;28;20082;-74
2023/06/24 13:39:22;;;;;;;;;;;28.10;99.90;;;;;;4949200;28;20003;-74
2023/06/24 13:41:49;;;;;;;;;;;28.20;99.90;;;;;;4936898;28;20027;-74
2023/06/24 13:44:15;;;;;;;;;;;28.40;99.90;;;;;;4939518;28;20602;-75
2023/06/24 13:46:42;;;;;;;;;;;28.20;99.90;;;;;;4955102;28;20658;-73
2023/06/24 13:49:10;;;;;;;;;;;28.00;99.90;;;;;;4964195;28;20011;-72
2023/06/24 13:51:37;;;;;;;;;;;27.60;99.90;;;;;;4974078;28;20020;-71
2023/06/24 13:54:04;;;;;;;;;;;27.80;99.90;;;;;;4979081;28;20018;-74
2023/06/24 13:56:31;;;;;;;;;;;27.80;99.90;;;;;;4965401;28;20022;-74
2023/06/24 13:58:58;;;;;;;;;;;28.10;99.90;;;;;;4961766;28;20018;-74
2023/06/24 14:01:24;;;;;;;;;;;28.20;99.90;;;;;;4964248;28;20062;-72
2023/06/24 14:03:52;;;;;;;;;;;28.40;99.90;;;;;;4957711;28;20011;-73
2023/06/24 14:06:21;;;;;;;;;;;28.20;99.90;;;;;;4956524;28;20141;-73
2023/06/24 14:08:48;;;;;;;;;;;28.40;99.90;;;;;;4953132;28;20037;-73
2023/06/24 14:11:15;;;;;;;;;;;28.40;99.90;;;;;;4956666;28;20382;-73
2023/06/24 14:14:26;;;;;;;50.83;48.03;;;27.90;99.90;;;;;;5050852;28;20408;-73
2023/06/24 14:16:53;;;;;;;49.40;46.75;;;28.00;99.90;;;;;;4984404;28;20133;-74
2023/06/24 14:19:20;;;;;;;49.05;46.35;;;27.70;99.90;;;;;;5004196;28;20054;-73
2023/06/24 14:21:50;;;;;;;47.60;44.85;;;27.70;99.90;;;;;;5006170;28;20065;-73